sensor_id;sensor_type;location;lat;lon;timestamp;P1;durP1;ratioP1;P2;durP2;ratioP2
21206;SDS011;10761;48.532;8.026;2023-09-07T00:01:44;3.65;;;2.30;;
21206;SDS011;10761;48.532;8.026;2023-09-07T00:04:10;4.13;;;2.70;;
21206;SDS011;10761;48.532;8.026;2023-09-07T00:06:37;2.78;;;2.50;;
21206;SDS011;10761;48.532;8.026;2023-09-07T00:09:04;3.67;;;2.70;;
21206;SDS011;10761;48.532;8.026;2023-09-07T00:11:31;3.40;;;2.78;;
21206;SDS011;10761;48.532;8.026;2023-09-07T00:13:57;4.65;;;2.80;;
21206;SDS011;10761;48.532;8.026;2023-09-07T00:16:24;5.00;;;3.00;;
21206;SDS011;10761;48.532;8.026;2023-09-07T00:18:50;5.75;;;3.05;;
21206;SDS011;10761;48.532;8.026;2023-09-07T00:21:15;4.32;;;3.08;;
21206;SDS011;10761;48.532;8.026;2023-09-07T00:23:41;3.40;;;3.08;;
21206;SDS011;10761;48.532;8.026;2023-09-07T00:26:07;5.55;;;2.95;;
21206;SDS011;10761;48.532;8.026;2023-09-07T00:28:33;4.70;;;2.83;;
21206;SDS011;10761;48.532;8.026;2023-09-07T00:30:58;3.05;;;2.72;;
21206;SDS011;10761;48.532;8.026;2023-09-07T00:33:24;3.45;;;3.15;;
21206;SDS011;10761;48.532;8.026;2023-09-07T00:35:49;8.02;;;2.70;;
21206;SDS011;10761;48.532;8.026;2023-09-07T00:38:15;4.18;;;3.28;;
21206;SDS011;10761;48.532;8.026;2023-09-07T00:40:44;4.32;;;2.70;;
21206;SDS011;10761;48.532;8.026;2023-09-07T00:43:10;6.13;;;3.25;;
21206;SDS011;10761;48.532;8.026;2023-09-07T00:45:36;4.90;;;2.60;;
21206;SDS011;10761;48.532;8.026;2023-09-07T00:48:03;2.72;;;2.40;;
21206;SDS011;10761;48.532;8.026;2023-09-07T00:50:29;4.65;;;2.70;;
21206;SDS011;10761;48.532;8.026;2023-09-07T00:52:55;7.10;;;2.95;;
21206;SDS011;10761;48.532;8.026;2023-09-07T00:55:21;5.22;;;2.78;;
21206;SDS011;10761;48.532;8.026;2023-09-07T00:57:47;4.55;;;2.90;;
21206;SDS011;10761;48.532;8.026;2023-09-07T01:00:13;4.00;;;2.50;;
21206;SDS011;10761;48.532;8.026;2023-09-07T01:02:39;6.63;;;2.40;;
21206;SDS011;10761;48.532;8.026;2023-09-07T01:05:04;2.45;;;2.05;;
21206;SDS011;10761;48.532;8.026;2023-09-07T01:07:32;4.88;;;2.08;;
21206;SDS011;10761;48.532;8.026;2023-09-07T01:10:02;4.67;;;1.80;;
21206;SDS011;10761;48.532;8.026;2023-09-07T01:12:28;6.80;;;1.88;;
21206;SDS011;10761;48.532;8.026;2023-09-07T01:14:54;2.60;;;2.30;;
21206;SDS011;10761;48.532;8.026;2023-09-07T01:17:20;2.95;;;2.00;;
21206;SDS011;10761;48.532;8.026;2023-09-07T01:19:47;3.80;;;2.03;;
21206;SDS011;10761;48.532;8.026;2023-09-07T01:22:17;4.43;;;2.10;;
21206;SDS011;10761;48.532;8.026;2023-09-07T01:24:44;5.15;;;2.10;;
21206;SDS011;10761;48.532;8.026;2023-09-07T01:27:12;3.97;;;2.05;;
21206;SDS011;10761;48.532;8.026;2023-09-07T01:29:38;3.65;;;2.35;;
21206;SDS011;10761;48.532;8.026;2023-09-07T01:32:07;2.33;;;2.13;;
21206;SDS011;10761;48.532;8.026;2023-09-07T01:34:35;3.13;;;2.00;;
21206;SDS011;10761;48.532;8.026;2023-09-07T01:37:01;3.60;;;2.15;;
21206;SDS011;10761;48.532;8.026;2023-09-07T01:39:26;5.43;;;1.80;;
21206;SDS011;10761;48.532;8.026;2023-09-07T01:41:52;3.03;;;2.03;;
21206;SDS011;10761;48.532;8.026;2023-09-07T01:44:17;4.85;;;2.10;;
21206;SDS011;10761;48.532;8.026;2023-09-07T01:46:43;2.42;;;2.00;;
21206;SDS011;10761;48.532;8.026;2023-09-07T01:49:08;3.13;;;2.10;;
21206;SDS011;10761;48.532;8.026;2023-09-07T01:51:34;2.30;;;2.10;;
21206;SDS011;10761;48.532;8.026;2023-09-07T01:54:00;6.53;;;2.60;;
21206;SDS011;10761;48.532;8.026;2023-09-07T01:56:25;3.35;;;2.25;;
21206;SDS011;10761;48.532;8.026;2023-09-07T01:58:51;4.03;;;2.40;;
21206;SDS011;10761;48.532;8.026;2023-09-07T02:01:24;3.55;;;2.42;;
21206;SDS011;10761;48.532;8.026;2023-09-07T02:03:50;5.10;;;2.50;;
21206;SDS011;10761;48.532;8.026;2023-09-07T02:06:16;2.75;;;2.00;;
21206;SDS011;10761;48.532;8.026;2023-09-07T02:08:41;2.90;;;2.08;;
21206;SDS011;10761;48.532;8.026;2023-09-07T02:11:07;3.38;;;1.92;;
21206;SDS011;10761;48.532;8.026;2023-09-07T02:13:33;3.47;;;2.60;;
21206;SDS011;10761;48.532;8.026;2023-09-07T02:15:58;4.78;;;2.30;;
21206;SDS011;10761;48.532;8.026;2023-09-07T02:18:28;2.70;;;2.50;;
21206;SDS011;10761;48.532;8.026;2023-09-07T02:20:54;3.25;;;2.20;;
21206;SDS011;10761;48.532;8.026;2023-09-07T02:23:19;3.60;;;2.38;;
21206;SDS011;10761;48.532;8.026;2023-09-07T02:25:45;2.70;;;2.50;;
21206;SDS011;10761;48.532;8.026;2023-09-07T02:28:10;3.20;;;2.70;;
21206;SDS011;10761;48.532;8.026;2023-09-07T02:30:36;5.80;;;3.92;;
21206;SDS011;10761;48.532;8.026;2023-09-07T02:33:01;4.00;;;3.60;;
21206;SDS011;10761;48.532;8.026;2023-09-07T02:35:29;7.03;;;4.20;;
21206;SDS011;10761;48.532;8.026;2023-09-07T02:37:54;6.68;;;4.32;;
21206;SDS011;10761;48.532;8.026;2023-09-07T02:40:20;6.65;;;3.90;;
21206;SDS011;10761;48.532;8.026;2023-09-07T02:42:45;4.85;;;4.25;;
21206;SDS011;10761;48.532;8.026;2023-09-07T02:45:11;9.15;;;4.60;;
21206;SDS011;10761;48.532;8.026;2023-09-07T02:47:38;8.75;;;4.22;;
21206;SDS011;10761;48.532;8.026;2023-09-07T02:50:04;6.35;;;4.35;;
21206;SDS011;10761;48.532;8.026;2023-09-07T02:52:30;8.52;;;5.22;;
21206;SDS011;10761;48.532;8.026;2023-09-07T02:54:56;9.93;;;4.90;;
21206;SDS011;10761;48.532;8.026;2023-09-07T02:57:21;7.90;;;5.40;;
21206;SDS011;10761;48.532;8.026;2023-09-07T02:59:47;8.55;;;4.90;;
21206;SDS011;10761;48.532;8.026;2023-09-07T03:02:12;6.47;;;4.97;;
21206;SDS011;10761;48.532;8.026;2023-09-07T03:04:38;10.57;;;5.80;;
21206;SDS011;10761;48.532;8.026;2023-09-07T03:07:03;6.75;;;5.55;;
21206;SDS011;10761;48.532;8.026;2023-09-07T03:09:29;9.15;;;5.32;;
21206;SDS011;10761;48.532;8.026;2023-09-07T03:11:54;8.18;;;5.30;;
21206;SDS011;10761;48.532;8.026;2023-09-07T03:14:20;6.30;;;5.70;;
21206;SDS011;10761;48.532;8.026;2023-09-07T03:16:45;7.65;;;5.78;;
21206;SDS011;10761;48.532;8.026;2023-09-07T03:19:15;8.73;;;6.32;;
21206;SDS011;10761;48.532;8.026;2023-09-07T03:21:40;6.35;;;5.32;;
21206;SDS011;10761;48.532;8.026;2023-09-07T03:24:06;9.05;;;5.68;;
21206;SDS011;10761;48.532;8.026;2023-09-07T03:26:32;8.52;;;4.35;;
21206;SDS011;10761;48.532;8.026;2023-09-07T03:28:57;9.32;;;4.97;;
21206;SDS011;10761;48.532;8.026;2023-09-07T03:31:23;6.38;;;4.93;;
21206;SDS011;10761;48.532;8.026;2023-09-07T03:33:48;6.90;;;5.38;;
21206;SDS011;10761;48.532;8.026;2023-09-07T03:36:14;7.20;;;5.00;;
21206;SDS011;10761;48.532;8.026;2023-09-07T03:38:40;5.65;;;5.10;;
21206;SDS011;10761;48.532;8.026;2023-09-07T03:41:06;5.47;;;4.97;;
21206;SDS011;10761;48.532;8.026;2023-09-07T03:43:32;5.95;;;5.15;;
21206;SDS011;10761;48.532;8.026;2023-09-07T03:45:57;6.07;;;5.47;;
21206;SDS011;10761;48.532;8.026;2023-09-07T03:48:23;6.50;;;5.90;;
21206;SDS011;10761;48.532;8.026;2023-09-07T03:50:49;6.97;;;5.95;;
21206;SDS011;10761;48.532;8.026;2023-09-07T03:53:15;5.72;;;5.22;;
21206;SDS011;10761;48.532;8.026;2023-09-07T03:55:41;7.15;;;5.57;;
21206;SDS011;10761;48.532;8.026;2023-09-07T03:58:11;7.07;;;4.78;;
21206;SDS011;10761;48.532;8.026;2023-09-07T04:00:43;6.13;;;5.38;;
21206;SDS011;10761;48.532;8.026;2023-09-07T04:03:09;5.43;;;4.80;;
21206;SDS011;10761;48.532;8.026;2023-09-07T04:05:38;8.07;;;5.45;;
21206;SDS011;10761;48.532;8.026;2023-09-07T04:08:03;6.57;;;4.90;;
21206;SDS011;10761;48.532;8.026;2023-09-07T04:10:29;5.40;;;4.80;;
21206;SDS011;10761;48.532;8.026;2023-09-07T04:12:55;5.35;;;4.82;;
21206;SDS011;10761;48.532;8.026;2023-09-07T04:15:20;7.75;;;4.47;;
21206;SDS011;10761;48.532;8.026;2023-09-07T04:17:46;6.28;;;4.70;;
21206;SDS011;10761;48.532;8.026;2023-09-07T04:20:12;5.75;;;4.80;;
21206;SDS011;10761;48.532;8.026;2023-09-07T04:22:40;9.00;;;4.97;;
21206;SDS011;10761;48.532;8.026;2023-09-07T04:25:06;6.13;;;4.65;;
21206;SDS011;10761;48.532;8.026;2023-09-07T04:27:31;6.88;;;5.18;;
21206;SDS011;10761;48.532;8.026;2023-09-07T04:29:57;8.00;;;5.50;;
21206;SDS011;10761;48.532;8.026;2023-09-07T04:32:22;6.53;;;5.10;;
21206;SDS011;10761;48.532;8.026;2023-09-07T04:34:52;6.05;;;4.70;;
21206;SDS011;10761;48.532;8.026;2023-09-07T04:37:21;5.13;;;4.65;;
21206;SDS011;10761;48.532;8.026;2023-09-07T04:39:51;7.35;;;6.65;;
21206;SDS011;10761;48.532;8.026;2023-09-07T04:42:18;9.10;;;7.75;;
21206;SDS011;10761;48.532;8.026;2023-09-07T04:44:44;10.50;;;7.70;;
21206;SDS011;10761;48.532;8.026;2023-09-07T04:47:09;13.07;;;7.68;;
21206;SDS011;10761;48.532;8.026;2023-09-07T04:49:35;10.00;;;8.35;;
21206;SDS011;10761;48.532;8.026;2023-09-07T04:52:00;10.23;;;8.73;;
21206;SDS011;10761;48.532;8.026;2023-09-07T04:54:26;9.45;;;7.97;;
21206;SDS011;10761;48.532;8.026;2023-09-07T04:56:52;10.45;;;7.00;;
21206;SDS011;10761;48.532;8.026;2023-09-07T04:59:17;9.15;;;6.93;;
21206;SDS011;10761;48.532;8.026;2023-09-07T05:01:43;9.38;;;6.32;;
21206;SDS011;10761;48.532;8.026;2023-09-07T05:04:08;6.60;;;5.90;;
21206;SDS011;10761;48.532;8.026;2023-09-07T05:06:34;7.30;;;5.03;;
21206;SDS011;10761;48.532;8.026;2023-09-07T05:09:02;10.05;;;5.43;;
21206;SDS011;10761;48.532;8.026;2023-09-07T05:11:28;8.02;;;5.20;;
21206;SDS011;10761;48.532;8.026;2023-09-07T05:13:54;8.18;;;5.18;;
21206;SDS011;10761;48.532;8.026;2023-09-07T05:16:19;5.57;;;5.00;;
21206;SDS011;10761;48.532;8.026;2023-09-07T05:18:45;12.40;;;6.18;;
21206;SDS011;10761;48.532;8.026;2023-09-07T05:21:11;7.15;;;5.40;;
21206;SDS011;10761;48.532;8.026;2023-09-07T05:23:40;7.05;;;5.22;;
21206;SDS011;10761;48.532;8.026;2023-09-07T05:26:06;10.90;;;5.65;;
21206;SDS011;10761;48.532;8.026;2023-09-07T05:28:32;8.45;;;5.25;;
21206;SDS011;10761;48.532;8.026;2023-09-07T05:30:57;5.75;;;5.13;;
21206;SDS011;10761;48.532;8.026;2023-09-07T05:33:23;5.60;;;5.00;;
21206;SDS011;10761;48.532;8.026;2023-09-07T05:35:49;6.38;;;5.43;;
21206;SDS011;10761;48.532;8.026;2023-09-07T05:38:14;7.63;;;5.20;;
21206;SDS011;10761;48.532;8.026;2023-09-07T05:40:41;9.02;;;5.00;;
21206;SDS011;10761;48.532;8.026;2023-09-07T05:43:08;6.32;;;5.22;;
21206;SDS011;10761;48.532;8.026;2023-09-07T05:45:34;8.40;;;4.85;;
21206;SDS011;10761;48.532;8.026;2023-09-07T05:48:02;8.55;;;4.72;;
21206;SDS011;10761;48.532;8.026;2023-09-07T05:50:28;6.00;;;4.43;;
21206;SDS011;10761;48.532;8.026;2023-09-07T05:52:54;7.45;;;5.55;;
21206;SDS011;10761;48.532;8.026;2023-09-07T05:55:20;5.35;;;4.85;;
21206;SDS011;10761;48.532;8.026;2023-09-07T05:57:45;8.73;;;5.30;;
21206;SDS011;10761;48.532;8.026;2023-09-07T06:00:11;6.25;;;5.45;;
21206;SDS011;10761;48.532;8.026;2023-09-07T06:02:38;5.85;;;4.95;;
21206;SDS011;10761;48.532;8.026;2023-09-07T06:05:04;8.55;;;5.05;;
21206;SDS011;10761;48.532;8.026;2023-09-07T06:07:30;12.88;;;5.47;;
21206;SDS011;10761;48.532;8.026;2023-09-07T06:09:55;6.32;;;5.30;;
21206;SDS011;10761;48.532;8.026;2023-09-07T06:12:23;6.50;;;5.25;;
21206;SDS011;10761;48.532;8.026;2023-09-07T06:14:49;6.47;;;5.68;;
21206;SDS011;10761;48.532;8.026;2023-09-07T06:17:15;7.85;;;6.25;;
21206;SDS011;10761;48.532;8.026;2023-09-07T06:19:40;10.88;;;6.55;;
21206;SDS011;10761;48.532;8.026;2023-09-07T06:22:06;7.95;;;5.65;;
21206;SDS011;10761;48.532;8.026;2023-09-07T06:24:31;9.23;;;6.20;;
21206;SDS011;10761;48.532;8.026;2023-09-07T06:26:57;7.25;;;6.53;;
21206;SDS011;10761;48.532;8.026;2023-09-07T06:29:23;6.97;;;5.70;;
21206;SDS011;10761;48.532;8.026;2023-09-07T06:31:51;7.75;;;5.50;;
21206;SDS011;10761;48.532;8.026;2023-09-07T06:34:17;8.43;;;5.90;;
21206;SDS011;10761;48.532;8.026;2023-09-07T06:36:43;8.55;;;6.05;;
21206;SDS011;10761;48.532;8.026;2023-09-07T06:39:08;8.95;;;5.55;;
21206;SDS011;10761;48.532;8.026;2023-09-07T06:41:34;7.10;;;6.07;;
21206;SDS011;10761;48.532;8.026;2023-09-07T06:43:59;11.30;;;6.40;;
21206;SDS011;10761;48.532;8.026;2023-09-07T06:46:25;9.63;;;6.45;;
21206;SDS011;10761;48.532;8.026;2023-09-07T06:48:50;8.05;;;6.20;;
21206;SDS011;10761;48.532;8.026;2023-09-07T06:51:17;6.47;;;5.80;;
21206;SDS011;10761;48.532;8.026;2023-09-07T06:53:42;7.75;;;5.60;;
21206;SDS011;10761;48.532;8.026;2023-09-07T06:56:08;10.88;;;6.43;;
21206;SDS011;10761;48.532;8.026;2023-09-07T06:58:33;9.45;;;5.22;;
21206;SDS011;10761;48.532;8.026;2023-09-07T07:00:59;12.85;;;5.70;;
21206;SDS011;10761;48.532;8.026;2023-09-07T07:03:26;9.77;;;5.78;;
21206;SDS011;10761;48.532;8.026;2023-09-07T07:05:53;8.10;;;5.38;;
21206;SDS011;10761;48.532;8.026;2023-09-07T07:08:19;7.05;;;5.72;;
21206;SDS011;10761;48.532;8.026;2023-09-07T07:10:45;9.32;;;5.35;;
21206;SDS011;10761;48.532;8.026;2023-09-07T07:13:10;8.45;;;5.38;;
21206;SDS011;10761;48.532;8.026;2023-09-07T07:15:36;7.68;;;5.55;;
21206;SDS011;10761;48.532;8.026;2023-09-07T07:18:01;6.95;;;5.55;;
21206;SDS011;10761;48.532;8.026;2023-09-07T07:20:33;7.57;;;5.35;;
21206;SDS011;10761;48.532;8.026;2023-09-07T07:22:59;13.27;;;5.53;;
21206;SDS011;10761;48.532;8.026;2023-09-07T07:25:25;6.05;;;4.93;;
21206;SDS011;10761;48.532;8.026;2023-09-07T07:27:50;6.90;;;5.43;;
21206;SDS011;10761;48.532;8.026;2023-09-07T07:30:16;6.97;;;4.65;;
21206;SDS011;10761;48.532;8.026;2023-09-07T07:32:41;5.63;;;4.80;;
21206;SDS011;10761;48.532;8.026;2023-09-07T07:35:07;6.85;;;4.82;;
21206;SDS011;10761;48.532;8.026;2023-09-07T07:37:33;8.48;;;4.90;;
21206;SDS011;10761;48.532;8.026;2023-09-07T07:39:58;5.45;;;4.95;;
21206;SDS011;10761;48.532;8.026;2023-09-07T07:42:24;6.47;;;4.55;;
21206;SDS011;10761;48.532;8.026;2023-09-07T07:44:49;5.63;;;4.60;;
21206;SDS011;10761;48.532;8.026;2023-09-07T07:47:15;7.05;;;4.63;;
21206;SDS011;10761;48.532;8.026;2023-09-07T07:49:41;12.35;;;4.85;;
21206;SDS011;10761;48.532;8.026;2023-09-07T07:52:07;7.15;;;4.97;;
21206;SDS011;10761;48.532;8.026;2023-09-07T07:54:33;5.75;;;4.57;;
21206;SDS011;10761;48.532;8.026;2023-09-07T07:56:59;5.25;;;4.75;;
21206;SDS011;10761;48.532;8.026;2023-09-07T07:59:24;7.95;;;4.22;;
21206;SDS011;10761;48.532;8.026;2023-09-07T08:01:50;7.80;;;4.30;;
21206;SDS011;10761;48.532;8.026;2023-09-07T08:04:15;9.43;;;4.40;;
21206;SDS011;10761;48.532;8.026;2023-09-07T08:06:41;7.85;;;4.28;;
21206;SDS011;10761;48.532;8.026;2023-09-07T08:09:07;4.10;;;3.70;;
21206;SDS011;10761;48.532;8.026;2023-09-07T08:11:33;6.63;;;4.00;;
21206;SDS011;10761;48.532;8.026;2023-09-07T08:13:58;5.50;;;3.78;;
21206;SDS011;10761;48.532;8.026;2023-09-07T08:16:24;9.02;;;4.57;;
21206;SDS011;10761;48.532;8.026;2023-09-07T08:18:50;8.70;;;4.00;;
21206;SDS011;10761;48.532;8.026;2023-09-07T08:21:15;9.73;;;4.30;;
21206;SDS011;10761;48.532;8.026;2023-09-07T08:23:41;7.80;;;4.25;;
21206;SDS011;10761;48.532;8.026;2023-09-07T08:26:06;6.95;;;4.13;;
21206;SDS011;10761;48.532;8.026;2023-09-07T08:28:34;7.38;;;4.05;;
21206;SDS011;10761;48.532;8.026;2023-09-07T08:31:00;5.80;;;4.13;;
21206;SDS011;10761;48.532;8.026;2023-09-07T08:33:26;5.97;;;4.32;;
21206;SDS011;10761;48.532;8.026;2023-09-07T08:35:55;9.45;;;3.20;;
21206;SDS011;10761;48.532;8.026;2023-09-07T08:38:22;4.93;;;3.90;;
21206;SDS011;10761;48.532;8.026;2023-09-07T08:40:53;4.60;;;3.43;;
21206;SDS011;10761;48.532;8.026;2023-09-07T08:43:20;5.18;;;3.63;;
21206;SDS011;10761;48.532;8.026;2023-09-07T08:45:48;5.15;;;3.50;;
21206;SDS011;10761;48.532;8.026;2023-09-07T08:48:18;6.40;;;3.88;;
21206;SDS011;10761;48.532;8.026;2023-09-07T08:50:45;8.57;;;4.40;;
21206;SDS011;10761;48.532;8.026;2023-09-07T08:53:16;5.25;;;3.67;;
21206;SDS011;10761;48.532;8.026;2023-09-07T08:55:44;12.25;;;4.00;;
21206;SDS011;10761;48.532;8.026;2023-09-07T08:58:09;6.53;;;3.47;;
21206;SDS011;10761;48.532;8.026;2023-09-07T09:00:35;6.70;;;3.67;;
21206;SDS011;10761;48.532;8.026;2023-09-07T09:03:02;4.88;;;3.65;;
21206;SDS011;10761;48.532;8.026;2023-09-07T09:05:28;6.13;;;4.07;;
21206;SDS011;10761;48.532;8.026;2023-09-07T09:08:04;5.65;;;3.55;;
21206;SDS011;10761;48.532;8.026;2023-09-07T09:10:30;4.15;;;3.75;;
21206;SDS011;10761;48.532;8.026;2023-09-07T09:12:56;5.15;;;3.38;;
21206;SDS011;10761;48.532;8.026;2023-09-07T09:15:24;5.47;;;3.67;;
21206;SDS011;10761;48.532;8.026;2023-09-07T09:17:51;10.63;;;4.40;;
21206;SDS011;10761;48.532;8.026;2023-09-07T09:20:20;3.70;;;3.40;;
21206;SDS011;10761;48.532;8.026;2023-09-07T09:22:47;7.82;;;4.22;;
21206;SDS011;10761;48.532;8.026;2023-09-07T09:25:15;4.10;;;3.58;;
21206;SDS011;10761;48.532;8.026;2023-09-07T09:27:40;6.07;;;3.53;;
21206;SDS011;10761;48.532;8.026;2023-09-07T09:30:06;7.80;;;3.78;;
21206;SDS011;10761;48.532;8.026;2023-09-07T09:32:32;5.72;;;3.58;;
21206;SDS011;10761;48.532;8.026;2023-09-07T09:34:58;5.18;;;2.95;;
21206;SDS011;10761;48.532;8.026;2023-09-07T09:37:25;5.20;;;3.10;;
21206;SDS011;10761;48.532;8.026;2023-09-07T09:39:51;9.77;;;3.85;;
21206;SDS011;10761;48.532;8.026;2023-09-07T09:42:18;10.48;;;3.83;;
21206;SDS011;10761;48.532;8.026;2023-09-07T09:44:45;5.05;;;3.53;;
21206;SDS011;10761;48.532;8.026;2023-09-07T09:47:14;4.85;;;3.22;;
21206;SDS011;10761;48.532;8.026;2023-09-07T09:49:40;8.23;;;3.80;;
21206;SDS011;10761;48.532;8.026;2023-09-07T09:52:06;8.90;;;4.18;;
21206;SDS011;10761;48.532;8.026;2023-09-07T09:54:34;6.30;;;4.05;;
21206;SDS011;10761;48.532;8.026;2023-09-07T09:57:01;6.95;;;4.70;;
21206;SDS011;10761;48.532;8.026;2023-09-07T09:59:26;8.23;;;4.13;;
21206;SDS011;10761;48.532;8.026;2023-09-07T10:01:52;7.38;;;4.22;;
21206;SDS011;10761;48.532;8.026;2023-09-07T10:04:18;9.85;;;3.75;;
21206;SDS011;10761;48.532;8.026;2023-09-07T10:06:53;8.35;;;4.18;;
21206;SDS011;10761;48.532;8.026;2023-09-07T10:09:20;5.55;;;3.67;;
21206;SDS011;10761;48.532;8.026;2023-09-07T10:11:50;7.55;;;3.63;;
21206;SDS011;10761;48.532;8.026;2023-09-07T10:14:19;4.70;;;3.78;;
21206;SDS011;10761;48.532;8.026;2023-09-07T10:16:46;8.48;;;4.05;;
21206;SDS011;10761;48.532;8.026;2023-09-07T10:19:16;5.47;;;3.67;;
21206;SDS011;10761;48.532;8.026;2023-09-07T10:21:45;8.45;;;4.30;;
21206;SDS011;10761;48.532;8.026;2023-09-07T10:24:11;6.60;;;3.20;;
21206;SDS011;10761;48.532;8.026;2023-09-07T10:26:55;4.70;;;3.42;;
21206;SDS011;10761;48.532;8.026;2023-09-07T10:29:25;4.47;;;2.95;;
21206;SDS011;10761;48.532;8.026;2023-09-07T10:31:52;5.20;;;3.30;;
21206;SDS011;10761;48.532;8.026;2023-09-07T10:34:18;8.20;;;3.53;;
21206;SDS011;10761;48.532;8.026;2023-09-07T10:36:44;7.80;;;3.10;;
21206;SDS011;10761;48.532;8.026;2023-09-07T10:39:10;6.53;;;3.42;;
21206;SDS011;10761;48.532;8.026;2023-09-07T10:41:41;5.72;;;2.92;;
21206;SDS011;10761;48.532;8.026;2023-09-07T10:44:08;4.35;;;3.40;;
21206;SDS011;10761;48.532;8.026;2023-09-07T10:46:35;4.50;;;3.25;;
21206;SDS011;10761;48.532;8.026;2023-09-07T10:49:02;6.18;;;3.00;;
21206;SDS011;10761;48.532;8.026;2023-09-07T10:51:28;7.88;;;3.30;;
21206;SDS011;10761;48.532;8.026;2023-09-07T10:53:54;7.07;;;3.40;;
21206;SDS011;10761;48.532;8.026;2023-09-07T10:56:20;5.32;;;3.50;;
21206;SDS011;10761;48.532;8.026;2023-09-07T10:58:50;7.65;;;3.60;;
21206;SDS011;10761;48.532;8.026;2023-09-07T11:01:19;3.63;;;3.10;;
21206;SDS011;10761;48.532;8.026;2023-09-07T11:03:45;4.13;;;2.83;;
21206;SDS011;10761;48.532;8.026;2023-09-07T11:06:20;5.18;;;2.80;;
21206;SDS011;10761;48.532;8.026;2023-09-07T11:08:46;3.20;;;2.90;;
21206;SDS011;10761;48.532;8.026;2023-09-07T11:11:12;5.50;;;2.92;;
21206;SDS011;10761;48.532;8.026;2023-09-07T11:13:38;4.00;;;3.10;;
21206;SDS011;10761;48.532;8.026;2023-09-07T11:16:06;7.55;;;3.28;;
21206;SDS011;10761;48.532;8.026;2023-09-07T11:18:33;6.07;;;2.80;;
21206;SDS011;10761;48.532;8.026;2023-09-07T11:21:00;6.22;;;3.00;;
21206;SDS011;10761;48.532;8.026;2023-09-07T11:23:29;5.30;;;3.10;;
21206;SDS011;10761;48.532;8.026;2023-09-07T11:25:56;5.40;;;3.10;;
21206;SDS011;10761;48.532;8.026;2023-09-07T11:28:23;6.35;;;2.90;;
21206;SDS011;10761;48.532;8.026;2023-09-07T11:30:52;3.47;;;2.80;;
21206;SDS011;10761;48.532;8.026;2023-09-07T11:33:20;5.07;;;2.92;;
21206;SDS011;10761;48.532;8.026;2023-09-07T11:35:50;5.50;;;3.28;;
21206;SDS011;10761;48.532;8.026;2023-09-07T11:38:16;5.68;;;3.17;;
21206;SDS011;10761;48.532;8.026;2023-09-07T11:40:42;3.75;;;2.97;;
21206;SDS011;10761;48.532;8.026;2023-09-07T11:43:13;6.32;;;3.13;;
21206;SDS011;10761;48.532;8.026;2023-09-07T11:45:44;4.10;;;2.95;;
21206;SDS011;10761;48.532;8.026;2023-09-07T11:48:11;3.90;;;2.90;;
21206;SDS011;10761;48.532;8.026;2023-09-07T11:50:37;5.93;;;3.33;;
21206;SDS011;10761;48.532;8.026;2023-09-07T11:53:04;14.05;;;3.50;;
21206;SDS011;10761;48.532;8.026;2023-09-07T11:55:30;3.60;;;3.10;;
21206;SDS011;10761;48.532;8.026;2023-09-07T11:57:56;5.10;;;3.20;;
21206;SDS011;10761;48.532;8.026;2023-09-07T12:00:21;5.70;;;2.85;;
21206;SDS011;10761;48.532;8.026;2023-09-07T12:02:47;12.27;;;3.03;;
21206;SDS011;10761;48.532;8.026;2023-09-07T12:05:13;5.35;;;3.25;;
21206;SDS011;10761;48.532;8.026;2023-09-07T12:07:40;4.63;;;2.97;;
21206;SDS011;10761;48.532;8.026;2023-09-07T12:10:08;3.28;;;2.60;;
21206;SDS011;10761;48.532;8.026;2023-09-07T12:12:38;4.68;;;2.92;;
21206;SDS011;10761;48.532;8.026;2023-09-07T12:15:05;6.90;;;3.10;;
21206;SDS011;10761;48.532;8.026;2023-09-07T12:17:31;4.53;;;2.70;;
21206;SDS011;10761;48.532;8.026;2023-09-07T12:19:57;3.40;;;2.65;;
21206;SDS011;10761;48.532;8.026;2023-09-07T12:22:23;11.63;;;2.85;;
21206;SDS011;10761;48.532;8.026;2023-09-07T12:24:49;6.15;;;2.80;;
21206;SDS011;10761;48.532;8.026;2023-09-07T12:27:14;5.40;;;2.80;;
21206;SDS011;10761;48.532;8.026;2023-09-07T12:29:40;5.13;;;2.58;;
21206;SDS011;10761;48.532;8.026;2023-09-07T12:32:06;6.53;;;2.72;;
21206;SDS011;10761;48.532;8.026;2023-09-07T12:34:32;6.05;;;3.10;;
21206;SDS011;10761;48.532;8.026;2023-09-07T12:36:57;3.92;;;2.83;;
21206;SDS011;10761;48.532;8.026;2023-09-07T12:39:23;5.93;;;3.00;;
21206;SDS011;10761;48.532;8.026;2023-09-07T12:41:49;4.13;;;2.60;;
21206;SDS011;10761;48.532;8.026;2023-09-07T12:44:15;6.68;;;2.60;;
21206;SDS011;10761;48.532;8.026;2023-09-07T12:46:41;2.97;;;2.53;;
21206;SDS011;10761;48.532;8.026;2023-09-07T12:49:07;4.32;;;2.40;;
21206;SDS011;10761;48.532;8.026;2023-09-07T12:51:32;8.45;;;2.70;;
21206;SDS011;10761;48.532;8.026;2023-09-07T12:53:58;8.52;;;2.92;;
21206;SDS011;10761;48.532;8.026;2023-09-07T12:56:23;5.85;;;2.83;;
21206;SDS011;10761;48.532;8.026;2023-09-07T12:58:49;4.18;;;2.78;;
21206;SDS011;10761;48.532;8.026;2023-09-07T13:01:17;12.77;;;3.00;;
21206;SDS011;10761;48.532;8.026;2023-09-07T13:03:43;5.00;;;2.80;;
21206;SDS011;10761;48.532;8.026;2023-09-07T13:06:08;2.70;;;2.50;;
21206;SDS011;10761;48.532;8.026;2023-09-07T13:08:34;5.70;;;2.50;;
21206;SDS011;10761;48.532;8.026;2023-09-07T13:10:59;3.22;;;2.92;;
21206;SDS011;10761;48.532;8.026;2023-09-07T13:13:25;5.63;;;2.70;;
21206;SDS011;10761;48.532;8.026;2023-09-07T13:15:54;4.35;;;2.70;;
21206;SDS011;10761;48.532;8.026;2023-09-07T13:18:20;5.25;;;2.80;;
21206;SDS011;10761;48.532;8.026;2023-09-07T13:20:46;4.45;;;2.83;;
21206;SDS011;10761;48.532;8.026;2023-09-07T13:23:13;4.10;;;2.70;;
21206;SDS011;10761;48.532;8.026;2023-09-07T13:25:38;3.15;;;2.70;;
21206;SDS011;10761;48.532;8.026;2023-09-07T13:28:04;4.82;;;2.60;;
21206;SDS011;10761;48.532;8.026;2023-09-07T13:30:30;5.93;;;2.88;;
21206;SDS011;10761;48.532;8.026;2023-09-07T13:32:55;5.38;;;3.08;;
21206;SDS011;10761;48.532;8.026;2023-09-07T13:35:21;4.78;;;2.70;;
21206;SDS011;10761;48.532;8.026;2023-09-07T13:37:46;7.63;;;3.00;;
21206;SDS011;10761;48.532;8.026;2023-09-07T13:40:12;5.22;;;2.65;;
21206;SDS011;10761;48.532;8.026;2023-09-07T13:42:39;4.13;;;2.70;;
21206;SDS011;10761;48.532;8.026;2023-09-07T13:45:05;7.88;;;3.03;;
21206;SDS011;10761;48.532;8.026;2023-09-07T13:47:31;4.55;;;2.95;;
21206;SDS011;10761;48.532;8.026;2023-09-07T13:49:58;5.70;;;3.03;;
21206;SDS011;10761;48.532;8.026;2023-09-07T13:52:24;3.20;;;2.90;;
21206;SDS011;10761;48.532;8.026;2023-09-07T13:54:50;5.30;;;3.00;;
21206;SDS011;10761;48.532;8.026;2023-09-07T13:57:16;5.97;;;2.90;;
21206;SDS011;10761;48.532;8.026;2023-09-07T13:59:41;6.38;;;3.05;;
21206;SDS011;10761;48.532;8.026;2023-09-07T14:02:07;6.30;;;3.05;;
21206;SDS011;10761;48.532;8.026;2023-09-07T14:04:32;5.97;;;2.95;;
21206;SDS011;10761;48.532;8.026;2023-09-07T14:06:58;3.47;;;2.70;;
21206;SDS011;10761;48.532;8.026;2023-09-07T14:09:24;4.45;;;2.70;;
21206;SDS011;10761;48.532;8.026;2023-09-07T14:11:49;8.10;;;3.00;;
21206;SDS011;10761;48.532;8.026;2023-09-07T14:14:15;10.55;;;3.13;;
21206;SDS011;10761;48.532;8.026;2023-09-07T14:16:41;7.03;;;3.28;;
21206;SDS011;10761;48.532;8.026;2023-09-07T14:19:07;5.60;;;3.30;;
21206;SDS011;10761;48.532;8.026;2023-09-07T14:21:32;5.03;;;2.85;;
21206;SDS011;10761;48.532;8.026;2023-09-07T14:23:58;5.15;;;2.92;;
21206;SDS011;10761;48.532;8.026;2023-09-07T14:26:23;10.60;;;3.22;;
21206;SDS011;10761;48.532;8.026;2023-09-07T14:28:49;5.25;;;3.20;;
21206;SDS011;10761;48.532;8.026;2023-09-07T14:31:15;3.85;;;3.05;;
21206;SDS011;10761;48.532;8.026;2023-09-07T14:33:41;3.65;;;2.80;;
21206;SDS011;10761;48.532;8.026;2023-09-07T14:36:07;6.10;;;3.30;;
21206;SDS011;10761;48.532;8.026;2023-09-07T14:38:36;4.95;;;2.90;;
21206;SDS011;10761;48.532;8.026;2023-09-07T14:41:09;3.47;;;3.10;;
21206;SDS011;10761;48.532;8.026;2023-09-07T14:43:37;6.00;;;2.97;;